createdAt,value
2018-06-21T00:00:09.372Z,95841.00
2018-06-21T00:00:41.380Z,95837.00
2018-06-21T00:01:13.399Z,95836.00
2018-06-21T00:01:45.462Z,95831.00
2018-06-21T00:02:17.482Z,95837.00
2018-06-21T00:02:49.491Z,95833.00
2018-06-21T00:03:21.498Z,95837.00
2018-06-21T00:03:53.514Z,95834.00
2018-06-21T00:04:25.539Z,95836.00
2018-06-21T00:04:57.546Z,95836.00
2018-06-21T00:05:29.581Z,95836.00
2018-06-21T00:06:01.598Z,95832.00
2018-06-21T00:06:33.661Z,95830.00
2018-06-21T00:07:05.645Z,95829.00
2018-06-21T00:07:37.693Z,95838.00
2018-06-21T00:08:09.713Z,95839.00
2018-06-21T00:08:41.718Z,95835.00
2018-06-21T00:09:13.735Z,95839.00
2018-06-21T00:09:45.774Z,95835.00
2018-06-21T00:10:17.921Z,95834.00
2018-06-21T00:10:49.927Z,95831.00
2018-06-21T00:11:21.945Z,95835.00
2018-06-21T00:11:53.976Z,95831.00
2018-06-21T00:12:25.984Z,95838.00
2018-06-21T00:12:57.998Z,95835.00
2018-06-21T00:13:30.008Z,95833.00
2018-06-21T00:14:02.074Z,95830.00
2018-06-21T00:14:34.087Z,95834.00
2018-06-21T00:15:06.123Z,95831.00
2018-06-21T00:15:38.122Z,95829.00
2018-06-21T00:16:10.140Z,95832.00
2018-06-21T00:16:42.167Z,95830.00
2018-06-21T00:17:14.195Z,95832.00
2018-06-21T00:17:46.206Z,95830.00
2018-06-21T00:18:18.326Z,95834.00
2018-06-21T00:18:50.299Z,95830.00
2018-06-21T00:19:22.306Z,95828.00
2018-06-21T00:19:54.346Z,95824.00
2018-06-21T00:20:26.365Z,95826.00
2018-06-21T00:20:58.378Z,95826.00
2018-06-21T00:21:30.409Z,95827.00
2018-06-21T00:22:02.417Z,95823.00
2018-06-21T00:22:34.502Z,95825.00
2018-06-21T00:23:06.519Z,95822.00
2018-06-21T00:23:38.543Z,95822.00
2018-06-21T00:24:10.566Z,95819.00
2018-06-21T00:24:42.639Z,95821.00
2018-06-21T00:25:14.648Z,95824.00
2018-06-21T00:25:46.687Z,95819.00
2018-06-21T00:26:18.689Z,95819.00
2018-06-21T00:26:50.711Z,95817.00
2018-06-21T00:27:22.719Z,95817.00
2018-06-21T00:27:54.738Z,95817.00
2018-06-21T00:28:26.747Z,95816.00
2018-06-21T00:28:58.776Z,95815.00
2018-06-21T00:29:30.779Z,95816.00
2018-06-21T00:30:02.872Z,95818.00
2018-06-21T00:30:34.902Z,95817.00
2018-06-21T00:31:06.922Z,95814.00
2018-06-21T00:31:38.933Z,95817.00
2018-06-21T00:32:10.952Z,95815.00
2018-06-21T00:32:42.968Z,95811.00
2018-06-21T00:33:14.982Z,95813.00
2018-06-21T00:33:47.007Z,95809.00
2018-06-21T00:34:19.056Z,95811.00
2018-06-21T00:34:51.068Z,95809.00
2018-06-21T00:35:23.083Z,95810.00
2018-06-21T00:35:55.122Z,95814.00
2018-06-21T00:36:27.157Z,95808.00
2018-06-21T00:36:59.163Z,95810.00
2018-06-21T00:37:31.171Z,95811.00
2018-06-21T00:38:03.583Z,95807.00
2018-06-21T00:38:35.483Z,95812.00
2018-06-21T00:39:07.620Z,95809.00
2018-06-21T00:39:39.639Z,95808.00
2018-06-21T00:40:11.666Z,95809.00
2018-06-21T00:40:43.671Z,95807.00
2018-06-21T00:41:15.699Z,95804.00
2018-06-21T00:41:47.711Z,95806.00
2018-06-21T00:42:19.727Z,95810.00
2018-06-21T00:42:51.787Z,95805.00
2018-06-21T00:43:23.771Z,95807.00
2018-06-21T00:43:55.786Z,95807.00
2018-06-21T00:44:27.790Z,95804.00
2018-06-21T00:44:59.830Z,95803.00
2018-06-21T00:45:31.842Z,95804.00
2018-06-21T00:46:03.850Z,95809.00
2018-06-21T00:46:35.881Z,95805.00
2018-06-21T00:47:07.898Z,95807.00
2018-06-21T00:47:40.294Z,95809.00
2018-06-21T00:48:12.237Z,95808.00
2018-06-21T00:48:44.282Z,95809.00
2018-06-21T00:49:16.294Z,95809.00
2018-06-21T00:49:48.299Z,95806.00
2018-06-21T00:50:20.333Z,95806.00
2018-06-21T00:50:52.359Z,95805.00
2018-06-21T00:51:24.367Z,95807.00
2018-06-21T00:51:56.386Z,95808.00
2018-06-21T00:52:28.398Z,95804.00
2018-06-21T00:53:00.443Z,95806.00
2018-06-21T00:53:32.477Z,95801.00
2018-06-21T00:54:04.533Z,95806.00
2018-06-21T00:54:36.523Z,95805.00
2018-06-21T00:55:08.563Z,95806.00
2018-06-21T00:55:40.585Z,95805.00
2018-06-21T00:56:12.604Z,95804.00
2018-06-21T00:56:44.639Z,95801.00
2018-06-21T00:57:16.713Z,95803.00
2018-06-21T00:57:48.732Z,95805.00
2018-06-21T00:58:20.761Z,95800.00
2018-06-21T00:58:52.774Z,95804.00
2018-06-21T00:59:24.798Z,95800.00
2018-06-21T00:59:56.821Z,95799.00
2018-06-21T01:00:29.030Z,95799.00
2018-06-21T01:01:01.049Z,95794.00
2018-06-21T01:01:33.074Z,95798.00
2018-06-21T01:02:05.102Z,95796.00
2018-06-21T01:02:37.111Z,95797.00
2018-06-21T01:03:09.134Z,95797.00
2018-06-21T01:03:41.131Z,95796.00
2018-06-21T01:04:13.157Z,95797.00
2018-06-21T01:04:45.226Z,95796.00
2018-06-21T01:05:17.245Z,95796.00
2018-06-21T01:05:49.266Z,95796.00
2018-06-21T01:06:21.295Z,95793.00
2018-06-21T01:06:53.302Z,95793.00
2018-06-21T01:07:25.307Z,95794.00
2018-06-21T01:07:57.380Z,95790.00
2018-06-21T01:08:29.414Z,95792.00
2018-06-21T01:09:01.428Z,95794.00
2018-06-21T01:09:33.432Z,95788.00
2018-06-21T01:10:05.454Z,95791.00
2018-06-21T01:10:37.485Z,95790.00
2018-06-21T01:11:09.496Z,95788.00
2018-06-21T01:11:41.523Z,95790.00
2018-06-21T01:12:13.552Z,95790.00
2018-06-21T01:12:45.576Z,95791.00
2018-06-21T01:13:17.599Z,95789.00
2018-06-21T01:13:49.616Z,95791.00
2018-06-21T01:14:21.631Z,95786.00
2018-06-21T01:14:53.642Z,95783.00
2018-06-21T01:15:25.658Z,95790.00
2018-06-21T01:15:57.717Z,95786.00
2018-06-21T01:16:29.720Z,95783.00
2018-06-21T01:17:01.751Z,95784.00
2018-06-21T01:17:33.756Z,95783.00
2018-06-21T01:18:05.779Z,95780.00
2018-06-21T01:18:37.793Z,95785.00
2018-06-21T01:19:09.806Z,95781.00
2018-06-21T01:19:41.830Z,95781.00
2018-06-21T01:20:13.916Z,95782.00
2018-06-21T01:20:45.927Z,95779.00
2018-06-21T01:21:17.957Z,95781.00
2018-06-21T01:21:49.972Z,95783.00
2018-06-21T01:22:21.978Z,95784.00
2018-06-21T01:22:54.006Z,95787.00
2018-06-21T01:23:26.018Z,95782.00
2018-06-21T01:23:58.044Z,95782.00
2018-06-21T01:24:30.056Z,95784.00
2018-06-21T01:25:02.071Z,95782.00
2018-06-21T01:25:34.073Z,95782.00
2018-06-21T01:26:06.082Z,95784.00
2018-06-21T01:26:38.106Z,95784.00
2018-06-21T01:27:10.146Z,95778.00
2018-06-21T01:27:42.172Z,95778.00
2018-06-21T01:28:14.193Z,95780.00
2018-06-21T01:28:46.292Z,95777.00
2018-06-21T01:29:18.697Z,95778.00
2018-06-21T01:29:50.584Z,95778.00
2018-06-21T01:30:22.595Z,95778.00
2018-06-21T01:30:54.640Z,95779.00
2018-06-21T01:31:26.677Z,95777.00
2018-06-21T01:31:58.691Z,95779.00
2018-06-21T01:32:30.710Z,95777.00
2018-06-21T01:33:02.702Z,95774.00
2018-06-21T01:33:34.754Z,95771.00
2018-06-21T01:34:06.780Z,95773.00
2018-06-21T01:34:38.791Z,95777.00
2018-06-21T01:35:10.810Z,95777.00
2018-06-21T01:35:42.859Z,95776.00
2018-06-21T01:36:14.887Z,95773.00
2018-06-21T01:36:46.909Z,95769.00
2018-06-21T01:37:18.915Z,95775.00
2018-06-21T01:37:50.962Z,95776.00
2018-06-21T01:38:22.945Z,95772.00
2018-06-21T01:38:54.965Z,95767.00
2018-06-21T01:39:26.974Z,95771.00
2018-06-21T01:39:58.981Z,95767.00
2018-06-21T01:40:31.002Z,95772.00
2018-06-21T01:41:03.068Z,95769.00
2018-06-21T01:41:35.136Z,95772.00
2018-06-21T01:42:07.172Z,95770.00
2018-06-21T01:42:39.158Z,95773.00
2018-06-21T01:43:11.194Z,95768.00
2018-06-21T01:43:43.220Z,95769.00
2018-06-21T01:44:15.253Z,95772.00
2018-06-21T01:44:47.256Z,95764.00
2018-06-21T01:45:19.278Z,95771.00
2018-06-21T01:45:51.299Z,95766.00
2018-06-21T01:46:23.330Z,95768.00
2018-06-21T01:46:55.327Z,95769.00
2018-06-21T01:47:27.342Z,95763.00
2018-06-21T01:47:59.339Z,95767.00
2018-06-21T01:48:31.355Z,95763.00
2018-06-21T01:49:03.390Z,95767.00
2018-06-21T01:49:35.405Z,95767.00
2018-06-21T01:50:07.470Z,95769.00
2018-06-21T01:50:39.467Z,95767.00
2018-06-21T01:51:11.516Z,95767.00
2018-06-21T01:51:43.530Z,95764.00
2018-06-21T01:52:15.614Z,95763.00
2018-06-21T01:52:47.669Z,95764.00
2018-06-21T01:53:19.634Z,95764.00
2018-06-21T01:53:52.051Z,95764.00
2018-06-21T01:54:23.932Z,95761.00
2018-06-21T01:54:55.944Z,95764.00
2018-06-21T01:55:27.950Z,95765.00
2018-06-21T01:55:59.978Z,95761.00
2018-06-21T01:56:32.027Z,95761.00
2018-06-21T01:57:04.005Z,95762.00
2018-06-21T01:57:36.055Z,95759.00
2018-06-21T01:58:08.074Z,95764.00
2018-06-21T01:58:40.079Z,95757.00
2018-06-21T01:59:12.093Z,95761.00
2018-06-21T01:59:44.131Z,95756.00
2018-06-21T02:00:16.163Z,95759.00
2018-06-21T02:00:48.337Z,95757.00
2018-06-21T02:01:20.363Z,95757.00
2018-06-21T02:01:52.363Z,95753.00
2018-06-21T02:02:24.398Z,95754.00
2018-06-21T02:02:56.444Z,95756.00
2018-06-21T02:03:28.461Z,95751.00
2018-06-21T02:04:00.478Z,95754.00
2018-06-21T02:04:32.598Z,95752.00
2018-06-21T02:05:04.572Z,95749.00
2018-06-21T02:05:36.592Z,95745.00
2018-06-21T02:06:08.602Z,95747.00
2018-06-21T02:06:40.614Z,95748.00
2018-06-21T02:07:12.657Z,95742.00
2018-06-21T02:07:44.674Z,95739.00
2018-06-21T02:08:16.687Z,95740.00
2018-06-21T02:08:48.704Z,95744.00
2018-06-21T02:09:20.758Z,95742.00
2018-06-21T02:09:52.773Z,95744.00
2018-06-21T02:10:24.784Z,95734.00
2018-06-21T02:10:56.887Z,95737.00
2018-06-21T02:11:28.887Z,95738.00
2018-06-21T02:12:00.915Z,95741.00
2018-06-21T02:12:32.939Z,95739.00
2018-06-21T02:13:04.951Z,95737.00
2018-06-21T02:13:36.974Z,95741.00
2018-06-21T02:14:08.996Z,95735.00
2018-06-21T02:14:41.021Z,95732.00
2018-06-21T02:15:13.035Z,95737.00
2018-06-21T02:15:45.066Z,95737.00
2018-06-21T02:16:17.097Z,95740.00
2018-06-21T02:16:49.097Z,95737.00
2018-06-21T02:17:21.100Z,95743.00
2018-06-21T02:17:53.113Z,95738.00
2018-06-21T02:18:25.133Z,95737.00
2018-06-21T02:18:57.168Z,95733.00
2018-06-21T02:19:29.185Z,95732.00
2018-06-21T02:20:01.190Z,95733.00
2018-06-21T02:20:33.210Z,95731.00
2018-06-21T02:21:05.224Z,95734.00
2018-06-21T02:21:37.331Z,95735.00
2018-06-21T02:22:09.313Z,95729.00
2018-06-21T02:22:41.322Z,95729.00
2018-06-21T02:23:13.361Z,95725.00
2018-06-21T02:23:45.374Z,95731.00
2018-06-21T02:24:17.389Z,95725.00
2018-06-21T02:24:49.406Z,95730.00
2018-06-21T02:25:21.430Z,95730.00
2018-06-21T02:25:53.443Z,95725.00
2018-06-21T02:26:25.486Z,95729.00
2018-06-21T02:26:57.486Z,95731.00
2018-06-21T02:27:29.499Z,95727.00
2018-06-21T02:28:01.506Z,95730.00
2018-06-21T02:28:33.519Z,95727.00
2018-06-21T02:29:05.532Z,95726.00
2018-06-21T02:29:37.542Z,95735.00
2018-06-21T02:30:09.577Z,95723.00
2018-06-21T02:30:41.591Z,95723.00
2018-06-21T02:31:13.611Z,95720.00
2018-06-21T02:31:45.609Z,95725.00
2018-06-21T02:32:17.636Z,95722.00
2018-06-21T02:32:49.652Z,95724.00
2018-06-21T02:33:21.688Z,95730.00
2018-06-21T02:33:53.689Z,95727.00
2018-06-21T02:34:25.772Z,95733.00
2018-06-21T02:34:57.738Z,95731.00
2018-06-21T02:35:29.849Z,95727.00
2018-06-21T02:36:01.838Z,95728.00
2018-06-21T02:36:33.843Z,95728.00
2018-06-21T02:37:05.858Z,95726.00
2018-06-21T02:37:37.898Z,95724.00
2018-06-21T02:38:09.905Z,95726.00
2018-06-21T02:38:41.952Z,95728.00
2018-06-21T02:39:13.940Z,95722.00
2018-06-21T02:39:45.957Z,95723.00
2018-06-21T02:40:17.982Z,95722.00
2018-06-21T02:40:49.991Z,95725.00
2018-06-21T02:41:22.002Z,95718.00
2018-06-21T02:41:54.019Z,95717.00
2018-06-21T02:42:26.038Z,95719.00
2018-06-21T02:42:58.048Z,95725.00
2018-06-21T02:43:30.063Z,95720.00
2018-06-21T02:44:02.078Z,95723.00
2018-06-21T02:44:34.111Z,95720.00
2018-06-21T02:45:06.115Z,95719.00
2018-06-21T02:45:38.151Z,95721.00
2018-06-21T02:46:10.163Z,95719.00
2018-06-21T02:46:42.171Z,95718.00
2018-06-21T02:47:14.183Z,95719.00
2018-06-21T02:47:46.217Z,95713.00
2018-06-21T02:48:18.230Z,95719.00
2018-06-21T02:48:50.242Z,95714.00
2018-06-21T02:49:22.315Z,95713.00
2018-06-21T02:49:54.344Z,95713.00
2018-06-21T02:50:26.338Z,95711.00
2018-06-21T02:50:58.356Z,95713.00
2018-06-21T02:51:30.434Z,95713.00
2018-06-21T02:52:02.484Z,95714.00
2018-06-21T02:52:34.484Z,95709.00
2018-06-21T02:53:06.524Z,95710.00
2018-06-21T02:53:38.530Z,95706.00
2018-06-21T02:54:10.564Z,95711.00
2018-06-21T02:54:42.586Z,95710.00
2018-06-21T02:55:14.587Z,95706.00
2018-06-21T02:55:46.610Z,95711.00
2018-06-21T02:56:18.644Z,95707.00
2018-06-21T02:56:50.747Z,95710.00
2018-06-21T02:57:22.778Z,95711.00
2018-06-21T02:57:54.788Z,95709.00
2018-06-21T02:58:26.823Z,95711.00
2018-06-21T02:58:58.834Z,95711.00
2018-06-21T02:59:30.857Z,95705.00
2018-06-21T03:00:02.876Z,95710.00
2018-06-21T03:00:34.896Z,95706.00
2018-06-21T03:01:06.899Z,95711.00
2018-06-21T03:01:38.917Z,95711.00
2018-06-21T03:02:10.947Z,95711.00
2018-06-21T03:02:42.985Z,95707.00
2018-06-21T03:03:14.992Z,95708.00
2018-06-21T03:03:47.003Z,95701.00
2018-06-21T03:04:19.018Z,95705.00
2018-06-21T03:04:51.053Z,95701.00
2018-06-21T03:05:23.077Z,95705.00
2018-06-21T03:05:55.106Z,95704.00
2018-06-21T03:06:27.111Z,95705.00
2018-06-21T03:06:59.168Z,95704.00
2018-06-21T03:07:31.163Z,95705.00
2018-06-21T03:08:03.173Z,95707.00
2018-06-21T03:08:35.174Z,95706.00
2018-06-21T03:09:07.185Z,95706.00
2018-06-21T03:09:39.200Z,95706.00
2018-06-21T03:10:11.223Z,95701.00
2018-06-21T03:10:43.253Z,95705.00
2018-06-21T03:11:15.266Z,95705.00
2018-06-21T03:11:47.305Z,95704.00
2018-06-21T03:12:19.332Z,95705.00
2018-06-21T03:12:51.362Z,95706.00
2018-06-21T03:13:23.375Z,95704.00
2018-06-21T03:13:55.406Z,95706.00
2018-06-21T03:14:27.430Z,95706.00
2018-06-21T03:14:59.456Z,95703.00
2018-06-21T03:15:31.475Z,95705.00
2018-06-21T03:16:03.501Z,95707.00
2018-06-21T03:16:35.501Z,95705.00
2018-06-21T03:17:07.531Z,95705.00
2018-06-21T03:17:39.541Z,95708.00
2018-06-21T03:18:11.570Z,95706.00
2018-06-21T03:18:43.582Z,95707.00
2018-06-21T03:19:15.606Z,95706.00
2018-06-21T03:19:47.628Z,95712.00
2018-06-21T03:20:19.649Z,95710.00
2018-06-21T03:20:51.668Z,95712.00
2018-06-21T03:21:23.688Z,95711.00
2018-06-21T03:21:55.740Z,95710.00
2018-06-21T03:22:27.725Z,95714.00
2018-06-21T03:22:59.724Z,95712.00
2018-06-21T03:23:31.750Z,95717.00
2018-06-21T03:24:03.753Z,95714.00
2018-06-21T03:24:35.786Z,95716.00
2018-06-21T03:25:07.778Z,95711.00
2018-06-21T03:25:39.805Z,95710.00
2018-06-21T03:26:11.829Z,95712.00
2018-06-21T03:26:43.835Z,95710.00
2018-06-21T03:27:15.895Z,95710.00
2018-06-21T03:27:47.906Z,95710.00
2018-06-21T03:28:19.933Z,95703.00
2018-06-21T03:28:51.962Z,95709.00
2018-06-21T03:29:24.092Z,95707.00
2018-06-21T03:29:56.122Z,95711.00
2018-06-21T03:30:28.126Z,95708.00
2018-06-21T03:31:00.143Z,95706.00
2018-06-21T03:31:32.158Z,95706.00
2018-06-21T03:32:04.171Z,95701.00
2018-06-21T03:32:36.194Z,95705.00
2018-06-21T03:33:08.202Z,95709.00
2018-06-21T03:33:40.231Z,95708.00
2018-06-21T03:34:12.314Z,95711.00
2018-06-21T03:34:44.323Z,95709.00
2018-06-21T03:35:16.343Z,95710.00
2018-06-21T03:35:48.352Z,95711.00
2018-06-21T03:36:20.395Z,95711.00
2018-06-21T03:36:52.376Z,95714.00
2018-06-21T03:37:24.401Z,95712.00
2018-06-21T03:37:56.452Z,95712.00
2018-06-21T03:38:28.484Z,95711.00
2018-06-21T03:39:00.475Z,95711.00
2018-06-21T03:39:32.486Z,95710.00
2018-06-21T03:40:04.495Z,95711.00
2018-06-21T03:40:36.509Z,95709.00
2018-06-21T03:41:08.559Z,95714.00
2018-06-21T03:41:40.572Z,95712.00
2018-06-21T03:42:12.598Z,95713.00
2018-06-21T03:42:44.604Z,95715.00
2018-06-21T03:43:16.632Z,95713.00
2018-06-21T03:43:48.642Z,95711.00
2018-06-21T03:44:20.664Z,95711.00
2018-06-21T03:44:52.674Z,95715.00
2018-06-21T03:45:24.684Z,95715.00
2018-06-21T03:45:56.715Z,95714.00
2018-06-21T03:46:28.751Z,95714.00
2018-06-21T03:47:00.757Z,95709.00
2018-06-21T03:47:32.797Z,95712.00
2018-06-21T03:48:04.795Z,95714.00
2018-06-21T03:48:37.199Z,95715.00
2018-06-21T03:49:09.090Z,95715.00
2018-06-21T03:49:41.101Z,95715.00
2018-06-21T03:50:13.112Z,95715.00
2018-06-21T03:50:45.135Z,95716.00
2018-06-21T03:51:17.159Z,95715.00
2018-06-21T03:51:49.155Z,95714.00
2018-06-21T03:52:21.283Z,95715.00
2018-06-21T03:52:53.195Z,95715.00
2018-06-21T03:53:25.220Z,95713.00
2018-06-21T03:53:57.223Z,95712.00
2018-06-21T03:54:29.254Z,95713.00
2018-06-21T03:55:01.363Z,95716.00
2018-06-21T03:55:33.494Z,95715.00
2018-06-21T03:56:05.863Z,95715.00
2018-06-21T03:56:37.851Z,95717.00
2018-06-21T03:57:09.850Z,95718.00
2018-06-21T03:57:41.907Z,95716.00
2018-06-21T03:58:13.916Z,95716.00
2018-06-21T03:58:45.922Z,95717.00
2018-06-21T03:59:17.927Z,95718.00
2018-06-21T03:59:49.960Z,95720.00
2018-06-21T04:00:22.020Z,95720.00
2018-06-21T04:00:54.029Z,95716.00
2018-06-21T04:01:26.061Z,95717.00
2018-06-21T04:01:58.079Z,95719.00
2018-06-21T04:02:30.090Z,95717.00
2018-06-21T04:03:02.179Z,95721.00
2018-06-21T04:03:34.129Z,95720.00
2018-06-21T04:04:06.140Z,95716.00
2018-06-21T04:04:38.163Z,95716.00
2018-06-21T04:05:10.209Z,95717.00
2018-06-21T04:05:42.198Z,95716.00
2018-06-21T04:06:14.220Z,95717.00
2018-06-21T04:06:46.290Z,95717.00
2018-06-21T04:07:18.341Z,95714.00
2018-06-21T04:07:50.348Z,95712.00
2018-06-21T04:08:22.443Z,95717.00
2018-06-21T04:08:54.395Z,95715.00
2018-06-21T04:09:26.438Z,95712.00
2018-06-21T04:09:58.451Z,95721.00
2018-06-21T04:10:30.468Z,95717.00
2018-06-21T04:11:02.476Z,95713.00
2018-06-21T04:11:34.507Z,95720.00
2018-06-21T04:12:06.575Z,95716.00
2018-06-21T04:12:38.599Z,95718.00
2018-06-21T04:13:10.615Z,95720.00
2018-06-21T04:13:42.659Z,95720.00
2018-06-21T04:14:14.661Z,95717.00
2018-06-21T04:14:46.684Z,95719.00
2018-06-21T04:15:18.698Z,95717.00
2018-06-21T04:15:50.733Z,95715.00
2018-06-21T04:16:22.742Z,95718.00
2018-06-21T04:16:54.757Z,95716.00
2018-06-21T04:17:26.812Z,95717.00
2018-06-21T04:17:58.832Z,95720.00
2018-06-21T04:18:30.819Z,95719.00
2018-06-21T04:19:02.842Z,95717.00
2018-06-21T04:19:34.863Z,95718.00
2018-06-21T04:20:06.940Z,95718.00
2018-06-21T04:20:38.923Z,95722.00
2018-06-21T04:21:10.941Z,95720.00
2018-06-21T04:21:43.256Z,95720.00
2018-06-21T04:22:15.239Z,95719.00
2018-06-21T04:22:47.276Z,95718.00
2018-06-21T04:23:19.296Z,95720.00
2018-06-21T04:23:51.336Z,95717.00
2018-06-21T04:24:23.348Z,95717.00
2018-06-21T04:24:55.387Z,95716.00
2018-06-21T04:25:27.394Z,95713.00
2018-06-21T04:25:59.434Z,95719.00
2018-06-21T04:26:31.443Z,95715.00
2018-06-21T04:27:03.483Z,95718.00
2018-06-21T04:27:35.494Z,95717.00
2018-06-21T04:28:07.505Z,95718.00
2018-06-21T04:28:39.509Z,95718.00
2018-06-21T04:29:11.561Z,95716.00
2018-06-21T04:29:43.560Z,95718.00
2018-06-21T04:30:15.588Z,95720.00
2018-06-21T04:30:47.602Z,95712.00
2018-06-21T04:31:19.627Z,95713.00
2018-06-21T04:31:51.627Z,95717.00
2018-06-21T04:32:23.681Z,95717.00
2018-06-21T04:32:55.809Z,95720.00
2018-06-21T04:33:27.789Z,95717.00
2018-06-21T04:33:59.801Z,95719.00
2018-06-21T04:34:31.854Z,95718.00
2018-06-21T04:35:03.858Z,95718.00
2018-06-21T04:35:35.890Z,95714.00
2018-06-21T04:36:07.901Z,95715.00
2018-06-21T04:36:39.952Z,95716.00
2018-06-21T04:37:11.965Z,95715.00
2018-06-21T04:37:43.992Z,95716.00
2018-06-21T04:38:16.037Z,95719.00
2018-06-21T04:38:48.067Z,95717.00
2018-06-21T04:39:20.086Z,95711.00
2018-06-21T04:39:52.098Z,95718.00
2018-06-21T04:40:24.110Z,95718.00
2018-06-21T04:40:56.150Z,95723.00
2018-06-21T04:41:28.165Z,95720.00
2018-06-21T04:42:00.190Z,95719.00
2018-06-21T04:42:32.203Z,95716.00
2018-06-21T04:43:04.223Z,95717.00
2018-06-21T04:43:36.238Z,95717.00
2018-06-21T04:44:08.291Z,95719.00
2018-06-21T04:44:40.288Z,95720.00
2018-06-21T04:45:12.313Z,95720.00
2018-06-21T04:45:44.396Z,95723.00
2018-06-21T04:46:16.355Z,95725.00
2018-06-21T04:46:48.398Z,95723.00
2018-06-21T04:47:20.415Z,95730.00
2018-06-21T04:47:52.452Z,95726.00
2018-06-21T04:48:24.507Z,95722.00
2018-06-21T04:48:56.520Z,95720.00
2018-06-21T04:49:28.596Z,95722.00
2018-06-21T04:50:00.601Z,95723.00
2018-06-21T04:50:32.629Z,95725.00
2018-06-21T04:51:04.644Z,95713.00
2018-06-21T04:51:36.684Z,95719.00
2018-06-21T04:52:08.713Z,95718.00
2018-06-21T04:52:40.749Z,95718.00
2018-06-21T04:53:12.761Z,95714.00
2018-06-21T04:53:44.786Z,95712.00
2018-06-21T04:54:16.794Z,95716.00
2018-06-21T04:54:48.826Z,95715.00
2018-06-21T04:55:20.834Z,95714.00
2018-06-21T04:55:52.838Z,95708.00
2018-06-21T04:56:24.854Z,95716.00
2018-06-21T04:56:56.896Z,95714.00
2018-06-21T04:57:28.927Z,95715.00
2018-06-21T04:58:00.934Z,95718.00
2018-06-21T04:58:32.960Z,95716.00
2018-06-21T04:59:04.995Z,95713.00
2018-06-21T04:59:37.004Z,95709.00
2018-06-21T05:00:09.075Z,95714.00
2018-06-21T05:00:41.037Z,95714.00
2018-06-21T05:01:13.070Z,95707.00
2018-06-21T05:01:45.073Z,95711.00
2018-06-21T05:02:17.098Z,95708.00
2018-06-21T05:02:49.117Z,95710.00
2018-06-21T05:03:21.176Z,95709.00
2018-06-21T05:03:53.192Z,95707.00
2018-06-21T05:04:25.195Z,95707.00
2018-06-21T05:04:57.226Z,95705.00
2018-06-21T05:05:29.231Z,95703.00
2018-06-21T05:06:01.251Z,95707.00
2018-06-21T05:06:33.261Z,95706.00
2018-06-21T05:07:05.271Z,95706.00
2018-06-21T05:07:37.278Z,95703.00
2018-06-21T05:08:09.549Z,95708.00
2018-06-21T05:08:41.597Z,95706.00
2018-06-21T05:09:13.608Z,95705.00
2018-06-21T05:09:45.622Z,95706.00
2018-06-21T05:10:17.661Z,95705.00
2018-06-21T05:10:49.671Z,95708.00
2018-06-21T05:11:21.693Z,95707.00
2018-06-21T05:11:53.752Z,95704.00
2018-06-21T05:12:25.763Z,95704.00
2018-06-21T05:12:57.779Z,95705.00
2018-06-21T05:13:29.842Z,95702.00
2018-06-21T05:14:01.867Z,95699.00
2018-06-21T05:14:33.896Z,95699.00
2018-06-21T05:15:05.963Z,95698.00
2018-06-21T05:15:38.000Z,95700.00
2018-06-21T05:16:10.016Z,95705.00
2018-06-21T05:16:42.053Z,95703.00
2018-06-21T05:17:14.048Z,95702.00
2018-06-21T05:17:46.059Z,95702.00
2018-06-21T05:18:18.137Z,95697.00
2018-06-21T05:18:50.070Z,95694.00
2018-06-21T05:19:22.077Z,95696.00
2018-06-21T05:19:54.114Z,95698.00
2018-06-21T05:20:26.211Z,95695.00
2018-06-21T05:20:58.238Z,95694.00
2018-06-21T05:21:30.265Z,95698.00
2018-06-21T05:22:02.276Z,95697.00
2018-06-21T05:22:34.282Z,95697.00
2018-06-21T05:23:06.306Z,95698.00
2018-06-21T05:23:38.358Z,95693.00
2018-06-21T05:24:10.362Z,95701.00
2018-06-21T05:24:42.378Z,95696.00
2018-06-21T05:25:14.535Z,95702.00
2018-06-21T05:25:46.399Z,95699.00
2018-06-21T05:26:18.425Z,95694.00
2018-06-21T05:26:50.464Z,95693.00
2018-06-21T05:27:22.459Z,95693.00
2018-06-21T05:27:54.478Z,95700.00
2018-06-21T05:28:26.498Z,95695.00
2018-06-21T05:28:58.522Z,95701.00
2018-06-21T05:29:30.538Z,95701.00
2018-06-21T05:30:02.567Z,95700.00
2018-06-21T05:30:34.575Z,95696.00
2018-06-21T05:31:06.614Z,95695.00
2018-06-21T05:31:38.619Z,95698.00
2018-06-21T05:32:10.778Z,95698.00
2018-06-21T05:32:42.703Z,95700.00
2018-06-21T05:33:14.715Z,95702.00
2018-06-21T05:33:46.743Z,95704.00
2018-06-21T05:34:18.791Z,95704.00
2018-06-21T05:34:50.815Z,95703.00
2018-06-21T05:35:22.817Z,95702.00
2018-06-21T05:35:54.819Z,95702.00
2018-06-21T05:36:26.822Z,95701.00
2018-06-21T05:36:58.834Z,95698.00
2018-06-21T05:37:30.913Z,95704.00
2018-06-21T05:38:02.881Z,95705.00
2018-06-21T05:38:34.936Z,95703.00
2018-06-21T05:39:06.895Z,95699.00
2018-06-21T05:39:39.005Z,95703.00
2018-06-21T05:40:11.002Z,95700.00
2018-06-21T05:40:43.021Z,95703.00
2018-06-21T05:41:15.026Z,95699.00
2018-06-21T05:41:47.062Z,95703.00
2018-06-21T05:42:19.047Z,95695.00
2018-06-21T05:42:51.057Z,95705.00
2018-06-21T05:43:23.070Z,95700.00
2018-06-21T05:43:55.179Z,95701.00
2018-06-21T05:44:27.157Z,95701.00
2018-06-21T05:44:59.155Z,95702.00
2018-06-21T05:45:31.169Z,95695.00
2018-06-21T05:46:03.184Z,95700.00
2018-06-21T05:46:35.219Z,95703.00
2018-06-21T05:47:07.226Z,95698.00
2018-06-21T05:47:39.239Z,95698.00
2018-06-21T05:48:11.274Z,95693.00
2018-06-21T05:48:43.263Z,95698.00
2018-06-21T05:49:15.285Z,95694.00
2018-06-21T05:49:47.300Z,95698.00
2018-06-21T05:50:19.320Z,95696.00
2018-06-21T05:50:51.348Z,95701.00
2018-06-21T05:51:23.339Z,95700.00
2018-06-21T05:51:55.348Z,95702.00
2018-06-21T05:52:27.385Z,95697.00
2018-06-21T05:52:59.399Z,95696.00
2018-06-21T05:53:31.405Z,95697.00
2018-06-21T05:54:03.483Z,95694.00
2018-06-21T05:54:35.491Z,95696.00
2018-06-21T05:55:07.503Z,95695.00
2018-06-21T05:55:39.528Z,95694.00
2018-06-21T05:56:11.553Z,95693.00
2018-06-21T05:56:43.625Z,95694.00
2018-06-21T05:57:15.579Z,95695.00
2018-06-21T05:57:47.588Z,95693.00
2018-06-21T05:58:19.605Z,95694.00
2018-06-21T05:58:51.613Z,95700.00
2018-06-21T05:59:23.618Z,95693.00
2018-06-21T05:59:55.647Z,95694.00
2018-06-21T06:00:27.646Z,95694.00
2018-06-21T06:00:59.671Z,95696.00
2018-06-21T06:01:31.689Z,95695.00
2018-06-21T06:02:03.709Z,95696.00
2018-06-21T06:02:35.713Z,95702.00
2018-06-21T06:03:07.711Z,95702.00
2018-06-21T06:03:39.739Z,95692.00
2018-06-21T06:04:11.792Z,95699.00
2018-06-21T06:04:43.797Z,95695.00
2018-06-21T06:05:15.813Z,95704.00
2018-06-21T06:05:47.852Z,95698.00
2018-06-21T06:06:19.863Z,95698.00
2018-06-21T06:06:51.881Z,95701.00
2018-06-21T06:07:23.890Z,95698.00
2018-06-21T06:07:55.912Z,95698.00
2018-06-21T06:08:27.940Z,95699.00
2018-06-21T06:08:59.950Z,95694.00
2018-06-21T06:09:31.992Z,95692.00
2018-06-21T06:10:04.014Z,95691.00
2018-06-21T06:10:36.039Z,95690.00
2018-06-21T06:11:08.074Z,95691.00
2018-06-21T06:11:40.095Z,95689.00
2018-06-21T06:12:12.112Z,95692.00
2018-06-21T06:12:44.135Z,95688.00
2018-06-21T06:13:16.167Z,95686.00
2018-06-21T06:13:48.194Z,95688.00
2018-06-21T06:14:20.211Z,95690.00
2018-06-21T06:14:52.214Z,95689.00
2018-06-21T06:15:24.244Z,95689.00
2018-06-21T06:15:56.251Z,95687.00